sensor_id;sensor_type;location;lat;lon;timestamp;P1;P2;P0
44933;PMS3003;30667;43.614;1.442;2023-04-15T00:00:13;6.00;5.00;1.00
44933;PMS3003;30667;43.614;1.442;2023-04-15T00:02:39;7.00;6.00;1.20
44933;PMS3003;30667;43.614;1.442;2023-04-15T00:05:05;9.60;6.00;1.00
44933;PMS3003;30667;43.614;1.442;2023-04-15T00:07:31;7.00;5.00;1.00
44933;PMS3003;30667;43.614;1.442;2023-04-15T00:09:57;6.00;4.75;1.00
44933;PMS3003;30667;43.614;1.442;2023-04-15T00:12:23;9.40;7.00;1.00
44933;PMS3003;30667;43.614;1.442;2023-04-15T00:14:52;8.80;6.80;1.00
44933;PMS3003;30667;43.614;1.442;2023-04-15T00:17:17;10.25;6.50;1.25
44933;PMS3003;30667;43.614;1.442;2023-04-15T00:19:42;7.50;6.00;1.00
44933;PMS3003;30667;43.614;1.442;2023-04-15T00:22:11;6.00;5.60;0.40
44933;PMS3003;30667;43.614;1.442;2023-04-15T00:24:37;8.00;7.00;1.00
44933;PMS3003;30667;43.614;1.442;2023-04-15T00:27:03;8.40;7.60;1.00
44933;PMS3003;30667;43.614;1.442;2023-04-15T00:29:29;9.60;6.40;1.00
44933;PMS3003;30667;43.614;1.442;2023-04-15T00:31:55;11.25;9.00;1.00
44933;PMS3003;30667;43.614;1.442;2023-04-15T00:34:24;7.80;6.20;1.00
44933;PMS3003;30667;43.614;1.442;2023-04-15T00:36:49;7.00;6.00;1.00
44933;PMS3003;30667;43.614;1.442;2023-04-15T00:39:16;14.80;9.00;2.00
44933;PMS3003;30667;43.614;1.442;2023-04-15T00:41:42;10.25;6.50;1.00
44933;PMS3003;30667;43.614;1.442;2023-04-15T00:44:08;8.80;6.00;1.00
44933;PMS3003;30667;43.614;1.442;2023-04-15T00:46:36;9.25;8.50;1.50
44933;PMS3003;30667;43.614;1.442;2023-04-15T00:49:03;10.00;7.00;1.00
44933;PMS3003;30667;43.614;1.442;2023-04-15T00:51:31;8.00;6.60;1.00
44933;PMS3003;30667;43.614;1.442;2023-04-15T00:54:01;8.60;7.40;2.00
44933;PMS3003;30667;43.614;1.442;2023-04-15T00:56:27;6.40;5.60;1.00
44933;PMS3003;30667;43.614;1.442;2023-04-15T00:58:54;10.20;8.60;1.40
44933;PMS3003;30667;43.614;1.442;2023-04-15T01:01:20;9.50;6.50;1.00
44933;PMS3003;30667;43.614;1.442;2023-04-15T01:03:47;10.80;6.20;1.00
44933;PMS3003;30667;43.614;1.442;2023-04-15T01:06:14;6.40;6.00;1.00
44933;PMS3003;30667;43.614;1.442;2023-04-15T01:08:39;10.00;7.00;1.50
44933;PMS3003;30667;43.614;1.442;2023-04-15T01:11:05;9.50;6.00;1.00
44933;PMS3003;30667;43.614;1.442;2023-04-15T01:13:32;6.40;5.60;1.00
44933;PMS3003;30667;43.614;1.442;2023-04-15T01:15:58;9.20;7.40;1.00
44933;PMS3003;30667;43.614;1.442;2023-04-15T01:18:24;9.00;6.40;1.40
44933;PMS3003;30667;43.614;1.442;2023-04-15T01:20:50;6.60;4.60;0.00
44933;PMS3003;30667;43.614;1.442;2023-04-15T01:23:16;11.00;5.50;0.25
44933;PMS3003;30667;43.614;1.442;2023-04-15T01:25:42;8.60;6.00;1.00
44933;PMS3003;30667;43.614;1.442;2023-04-15T01:28:07;7.00;6.00;1.00
44933;PMS3003;30667;43.614;1.442;2023-04-15T01:30:33;10.75;6.00;1.00
44933;PMS3003;30667;43.614;1.442;2023-04-15T01:32:59;9.00;6.00;1.00
44933;PMS3003;30667;43.614;1.442;2023-04-15T01:35:25;7.25;5.75;1.00
44933;PMS3003;30667;43.614;1.442;2023-04-15T01:37:51;7.40;5.40;0.00
44933;PMS3003;30667;43.614;1.442;2023-04-15T01:40:18;7.00;5.00;1.20
44933;PMS3003;30667;43.614;1.442;2023-04-15T01:42:43;5.50;5.50;0.00
44933;PMS3003;30667;43.614;1.442;2023-04-15T01:45:09;5.00;3.00;0.00
44933;PMS3003;30667;43.614;1.442;2023-04-15T01:47:35;7.00;3.00;1.00
44933;PMS3003;30667;43.614;1.442;2023-04-15T01:50:00;5.25;3.00;0.00
44933;PMS3003;30667;43.614;1.442;2023-04-15T01:52:26;5.50;3.00;0.25
44933;PMS3003;30667;43.614;1.442;2023-04-15T01:54:51;5.00;2.00;0.00
44933;PMS3003;30667;43.614;1.442;2023-04-15T01:57:16;6.25;3.00;0.00
44933;PMS3003;30667;43.614;1.442;2023-04-15T01:59:42;2.25;2.25;0.00
44933;PMS3003;30667;43.614;1.442;2023-04-15T02:02:07;3.00;2.00;0.00
44933;PMS3003;30667;43.614;1.442;2023-04-15T02:04:33;2.75;2.00;0.00
44933;PMS3003;30667;43.614;1.442;2023-04-15T02:06:58;1.00;1.00;0.00
44933;PMS3003;30667;43.614;1.442;2023-04-15T02:09:24;3.00;2.60;0.00
44933;PMS3003;30667;43.614;1.442;2023-04-15T02:11:50;4.25;3.25;0.00
44933;PMS3003;30667;43.614;1.442;2023-04-15T02:14:17;6.20;5.00;0.00
44933;PMS3003;30667;43.614;1.442;2023-04-15T02:16:43;1.75;1.00;0.00
44933;PMS3003;30667;43.614;1.442;2023-04-15T02:19:08;2.00;2.00;0.00
44933;PMS3003;30667;43.614;1.442;2023-04-15T02:21:33;3.75;3.00;0.00
44933;PMS3003;30667;43.614;1.442;2023-04-15T02:23:59;2.00;2.00;0.00
44933;PMS3003;30667;43.614;1.442;2023-04-15T02:26:26;3.20;2.00;0.00
44933;PMS3003;30667;43.614;1.442;2023-04-15T02:28:51;2.00;2.00;0.00
44933;PMS3003;30667;43.614;1.442;2023-04-15T02:31:17;5.00;2.50;0.00
44933;PMS3003;30667;43.614;1.442;2023-04-15T02:33:42;8.00;3.25;0.00
44933;PMS3003;30667;43.614;1.442;2023-04-15T02:36:07;3.00;2.00;0.00
44933;PMS3003;30667;43.614;1.442;2023-04-15T02:38:34;5.60;2.00;0.00
44933;PMS3003;30667;43.614;1.442;2023-04-15T02:41:00;1.75;1.25;0.00
44933;PMS3003;30667;43.614;1.442;2023-04-15T02:43:25;3.50;2.25;0.00
44933;PMS3003;30667;43.614;1.442;2023-04-15T02:45:51;5.75;3.00;0.00
44933;PMS3003;30667;43.614;1.442;2023-04-15T02:48:16;2.50;2.00;0.00
44933;PMS3003;30667;43.614;1.442;2023-04-15T02:50:44;3.00;1.80;0.00
44933;PMS3003;30667;43.614;1.442;2023-04-15T02:53:10;5.00;3.00;0.00
44933;PMS3003;30667;43.614;1.442;2023-04-15T02:55:37;3.00;2.00;0.00
44933;PMS3003;30667;43.614;1.442;2023-04-15T02:58:02;5.00;5.00;0.00
44933;PMS3003;30667;43.614;1.442;2023-04-15T03:00:28;2.75;2.00;0.00
44933;PMS3003;30667;43.614;1.442;2023-04-15T03:02:58;3.00;2.00;0.00
44933;PMS3003;30667;43.614;1.442;2023-04-15T03:05:29;3.80;2.20;0.00
44933;PMS3003;30667;43.614;1.442;2023-04-15T03:07:55;5.00;3.00;0.00
44933;PMS3003;30667;43.614;1.442;2023-04-15T03:10:21;5.75;4.75;0.00
44933;PMS3003;30667;43.614;1.442;2023-04-15T03:12:46;2.25;2.00;0.00
44933;PMS3003;30667;43.614;1.442;2023-04-15T03:15:12;4.75;2.50;0.00
44933;PMS3003;30667;43.614;1.442;2023-04-15T03:17:37;2.00;1.00;0.00
44933;PMS3003;30667;43.614;1.442;2023-04-15T03:20:03;2.25;1.50;0.00
44933;PMS3003;30667;43.614;1.442;2023-04-15T03:22:30;2.20;1.00;0.00
44933;PMS3003;30667;43.614;1.442;2023-04-15T03:24:56;1.00;1.00;0.00
44933;PMS3003;30667;43.614;1.442;2023-04-15T03:27:21;1.25;0.00;0.00
44933;PMS3003;30667;43.614;1.442;2023-04-15T03:29:47;1.25;1.00;0.00
44933;PMS3003;30667;43.614;1.442;2023-04-15T03:32:12;2.00;2.00;0.00
44933;PMS3003;30667;43.614;1.442;2023-04-15T03:34:39;1.00;1.00;0.00
44933;PMS3003;30667;43.614;1.442;2023-04-15T03:37:05;1.00;1.00;0.00
44933;PMS3003;30667;43.614;1.442;2023-04-15T03:39:30;2.00;2.00;0.00
44933;PMS3003;30667;43.614;1.442;2023-04-15T03:41:56;1.25;1.00;0.00
44933;PMS3003;30667;43.614;1.442;2023-04-15T03:44:21;0.75;0.75;0.00
44933;PMS3003;30667;43.614;1.442;2023-04-15T03:46:47;1.00;1.00;0.00
44933;PMS3003;30667;43.614;1.442;2023-04-15T03:49:12;0.25;0.25;0.00
44933;PMS3003;30667;43.614;1.442;2023-04-15T03:51:38;1.00;1.00;0.00
44933;PMS3003;30667;43.614;1.442;2023-04-15T03:54:03;5.00;2.00;0.00
44933;PMS3003;30667;43.614;1.442;2023-04-15T03:56:29;1.00;1.00;0.00
44933;PMS3003;30667;43.614;1.442;2023-04-15T03:58:55;1.50;1.50;0.00
44933;PMS3003;30667;43.614;1.442;2023-04-15T04:01:20;2.75;1.00;0.00
44933;PMS3003;30667;43.614;1.442;2023-04-15T04:03:46;1.40;1.00;0.00
44933;PMS3003;30667;43.614;1.442;2023-04-15T04:06:11;2.75;1.75;0.00
44933;PMS3003;30667;43.614;1.442;2023-04-15T04:08:37;4.50;2.00;0.00
44933;PMS3003;30667;43.614;1.442;2023-04-15T04:11:03;2.00;2.00;0.00
44933;PMS3003;30667;43.614;1.442;2023-04-15T04:13:28;2.20;2.00;0.00
44933;PMS3003;30667;43.614;1.442;2023-04-15T04:15:54;4.25;3.00;0.00
44933;PMS3003;30667;43.614;1.442;2023-04-15T04:18:19;0.75;0.75;0.00
44933;PMS3003;30667;43.614;1.442;2023-04-15T04:20:45;3.00;2.00;0.00
44933;PMS3003;30667;43.614;1.442;2023-04-15T04:23:10;2.00;2.00;0.00
44933;PMS3003;30667;43.614;1.442;2023-04-15T04:25:36;2.50;2.25;0.00
44933;PMS3003;30667;43.614;1.442;2023-04-15T04:28:01;4.00;2.25;0.00
44933;PMS3003;30667;43.614;1.442;2023-04-15T04:30:27;2.00;2.00;0.00
44933;PMS3003;30667;43.614;1.442;2023-04-15T04:32:52;3.00;2.00;0.00
44933;PMS3003;30667;43.614;1.442;2023-04-15T04:35:18;3.25;3.25;0.00
44933;PMS3003;30667;43.614;1.442;2023-04-15T04:37:43;2.50;1.00;0.00
44933;PMS3003;30667;43.614;1.442;2023-04-15T04:40:09;5.50;2.00;0.00
44933;PMS3003;30667;43.614;1.442;2023-04-15T04:42:34;3.00;2.00;0.00
44933;PMS3003;30667;43.614;1.442;2023-04-15T04:45:00;5.00;2.50;0.00
44933;PMS3003;30667;43.614;1.442;2023-04-15T04:47:25;5.75;3.00;0.00
44933;PMS3003;30667;43.614;1.442;2023-04-15T04:49:51;2.50;1.50;0.00
44933;PMS3003;30667;43.614;1.442;2023-04-15T04:52:16;2.50;2.00;0.00
44933;PMS3003;30667;43.614;1.442;2023-04-15T04:54:41;2.50;2.00;0.00
44933;PMS3003;30667;43.614;1.442;2023-04-15T04:57:07;5.00;3.00;0.00
44933;PMS3003;30667;43.614;1.442;2023-04-15T04:59:32;2.25;2.25;0.00
44933;PMS3003;30667;43.614;1.442;2023-04-15T05:01:58;5.00;3.25;0.00
44933;PMS3003;30667;43.614;1.442;2023-04-15T05:04:23;5.50;2.75;0.00
44933;PMS3003;30667;43.614;1.442;2023-04-15T05:06:49;2.75;2.00;0.00
44933;PMS3003;30667;43.614;1.442;2023-04-15T05:09:14;2.00;2.00;0.00
44933;PMS3003;30667;43.614;1.442;2023-04-15T05:11:40;6.00;2.75;0.00
44933;PMS3003;30667;43.614;1.442;2023-04-15T05:14:05;3.75;2.00;0.00
44933;PMS3003;30667;43.614;1.442;2023-04-15T05:16:30;4.50;3.00;0.00
44933;PMS3003;30667;43.614;1.442;2023-04-15T05:18:56;1.50;1.00;0.00
44933;PMS3003;30667;43.614;1.442;2023-04-15T05:21:21;2.00;2.00;0.00
44933;PMS3003;30667;43.614;1.442;2023-04-15T05:23:47;5.00;3.00;0.00
44933;PMS3003;30667;43.614;1.442;2023-04-15T05:26:13;3.75;2.00;0.00
44933;PMS3003;30667;43.614;1.442;2023-04-15T05:28:38;4.25;3.00;0.00
44933;PMS3003;30667;43.614;1.442;2023-04-15T05:31:03;2.00;1.00;0.00
44933;PMS3003;30667;43.614;1.442;2023-04-15T05:33:29;2.00;1.75;0.00
44933;PMS3003;30667;43.614;1.442;2023-04-15T05:35:54;3.00;3.00;0.00
44933;PMS3003;30667;43.614;1.442;2023-04-15T05:38:20;5.25;2.00;0.00
44933;PMS3003;30667;43.614;1.442;2023-04-15T05:40:45;2.00;1.00;0.00
44933;PMS3003;30667;43.614;1.442;2023-04-15T05:43:11;4.50;2.25;0.00
44933;PMS3003;30667;43.614;1.442;2023-04-15T05:45:36;1.75;1.25;0.00
44933;PMS3003;30667;43.614;1.442;2023-04-15T05:48:01;5.00;2.00;0.00
44933;PMS3003;30667;43.614;1.442;2023-04-15T05:50:27;1.00;1.00;0.00
44933;PMS3003;30667;43.614;1.442;2023-04-15T05:52:52;2.25;1.00;0.00
44933;PMS3003;30667;43.614;1.442;2023-04-15T05:55:18;1.75;1.75;0.00
44933;PMS3003;30667;43.614;1.442;2023-04-15T05:57:43;2.00;2.00;0.00
44933;PMS3003;30667;43.614;1.442;2023-04-15T06:00:08;1.50;1.25;0.00
44933;PMS3003;30667;43.614;1.442;2023-04-15T06:02:34;1.00;1.00;0.00
44933;PMS3003;30667;43.614;1.442;2023-04-15T06:05:00;2.25;1.25;0.00
44933;PMS3003;30667;43.614;1.442;2023-04-15T06:07:26;1.75;1.75;0.00
44933;PMS3003;30667;43.614;1.442;2023-04-15T06:09:51;2.50;1.75;0.00
44933;PMS3003;30667;43.614;1.442;2023-04-15T06:12:17;0.00;0.00;0.00
44933;PMS3003;30667;43.614;1.442;2023-04-15T06:14:42;2.00;1.00;0.00
44933;PMS3003;30667;43.614;1.442;2023-04-15T06:17:08;0.00;0.00;0.00
44933;PMS3003;30667;43.614;1.442;2023-04-15T06:19:34;2.00;1.00;0.00
44933;PMS3003;30667;43.614;1.442;2023-04-15T06:22:00;1.40;1.00;0.00
44933;PMS3003;30667;43.614;1.442;2023-04-15T06:24:26;2.00;1.00;0.00
44933;PMS3003;30667;43.614;1.442;2023-04-15T06:26:52;1.60;1.40;0.00
44933;PMS3003;30667;43.614;1.442;2023-04-15T06:29:17;2.00;2.00;0.00
44933;PMS3003;30667;43.614;1.442;2023-04-15T06:31:43;1.75;1.00;0.00
44933;PMS3003;30667;43.614;1.442;2023-04-15T06:34:08;2.00;1.00;0.00
44933;PMS3003;30667;43.614;1.442;2023-04-15T06:36:35;1.00;0.40;0.00
44933;PMS3003;30667;43.614;1.442;2023-04-15T06:39:00;0.00;0.00;0.00
44933;PMS3003;30667;43.614;1.442;2023-04-15T06:41:26;0.00;0.00;0.00
44933;PMS3003;30667;43.614;1.442;2023-04-15T06:43:52;0.00;0.00;0.00
44933;PMS3003;30667;43.614;1.442;2023-04-15T06:46:17;0.00;0.00;0.00
44933;PMS3003;30667;43.614;1.442;2023-04-15T06:48:42;0.00;0.00;0.00
44933;PMS3003;30667;43.614;1.442;2023-04-15T06:51:08;0.00;0.00;0.00
44933;PMS3003;30667;43.614;1.442;2023-04-15T06:53:33;0.50;0.00;0.00
44933;PMS3003;30667;43.614;1.442;2023-04-15T06:55:59;1.00;0.00;0.00
44933;PMS3003;30667;43.614;1.442;2023-04-15T06:58:25;0.00;0.00;0.00
44933;PMS3003;30667;43.614;1.442;2023-04-15T07:00:51;1.25;1.00;0.00
44933;PMS3003;30667;43.614;1.442;2023-04-15T07:03:16;1.00;0.00;0.00
44933;PMS3003;30667;43.614;1.442;2023-04-15T07:05:42;1.00;1.00;0.00
44933;PMS3003;30667;43.614;1.442;2023-04-15T07:08:07;0.50;0.25;0.00
44933;PMS3003;30667;43.614;1.442;2023-04-15T07:10:33;0.50;0.50;0.00
44933;PMS3003;30667;43.614;1.442;2023-04-15T07:12:59;2.20;1.00;0.00
44933;PMS3003;30667;43.614;1.442;2023-04-15T07:15:25;1.00;1.00;0.00
44933;PMS3003;30667;43.614;1.442;2023-04-15T07:17:50;1.00;1.00;0.00
44933;PMS3003;30667;43.614;1.442;2023-04-15T07:20:15;1.00;1.00;0.00
44933;PMS3003;30667;43.614;1.442;2023-04-15T07:22:41;0.25;0.25;0.00
44933;PMS3003;30667;43.614;1.442;2023-04-15T07:25:07;1.00;1.00;0.00
44933;PMS3003;30667;43.614;1.442;2023-04-15T07:27:33;0.80;0.80;0.00
44933;PMS3003;30667;43.614;1.442;2023-04-15T07:29:58;1.00;1.00;0.00
44933;PMS3003;30667;43.614;1.442;2023-04-15T07:32:24;2.00;1.00;0.00
44933;PMS3003;30667;43.614;1.442;2023-04-15T07:34:49;1.40;0.00;0.00
44933;PMS3003;30667;43.614;1.442;2023-04-15T07:37:15;1.00;1.00;0.00
44933;PMS3003;30667;43.614;1.442;2023-04-15T07:39:41;1.00;1.00;0.00
44933;PMS3003;30667;43.614;1.442;2023-04-15T07:42:07;2.60;1.80;0.00
44933;PMS3003;30667;43.614;1.442;2023-04-15T07:44:33;0.60;0.60;0.00
44933;PMS3003;30667;43.614;1.442;2023-04-15T07:46:59;1.00;1.00;0.00
44933;PMS3003;30667;43.614;1.442;2023-04-15T07:49:24;3.25;2.00;0.00
44933;PMS3003;30667;43.614;1.442;2023-04-15T07:51:50;2.00;2.00;0.00
44933;PMS3003;30667;43.614;1.442;2023-04-15T07:54:15;2.25;1.25;0.00
44933;PMS3003;30667;43.614;1.442;2023-04-15T07:56:40;2.00;1.00;0.00
44933;PMS3003;30667;43.614;1.442;2023-04-15T07:59:06;3.25;2.00;0.00
44933;PMS3003;30667;43.614;1.442;2023-04-15T08:01:33;2.00;2.00;0.00
44933;PMS3003;30667;43.614;1.442;2023-04-15T08:03:58;2.50;2.00;0.00
44933;PMS3003;30667;43.614;1.442;2023-04-15T08:06:24;3.00;2.00;0.00
44933;PMS3003;30667;43.614;1.442;2023-04-15T08:08:49;2.00;1.25;0.00
44933;PMS3003;30667;43.614;1.442;2023-04-15T08:11:15;2.00;1.00;0.00
44933;PMS3003;30667;43.614;1.442;2023-04-15T08:13:40;1.00;1.00;0.00
44933;PMS3003;30667;43.614;1.442;2023-04-15T08:16:24;2.25;2.25;0.00
44933;PMS3003;30667;43.614;1.442;2023-04-15T08:18:52;3.00;2.00;0.00
44933;PMS3003;30667;43.614;1.442;2023-04-15T08:21:19;2.60;2.00;0.00
44933;PMS3003;30667;43.614;1.442;2023-04-15T08:23:46;1.00;1.00;0.00
44933;PMS3003;30667;43.614;1.442;2023-04-15T08:26:13;4.00;2.00;0.00
44933;PMS3003;30667;43.614;1.442;2023-04-15T08:28:39;2.00;1.00;0.00
44933;PMS3003;30667;43.614;1.442;2023-04-15T08:31:06;1.20;1.00;0.00
44933;PMS3003;30667;43.614;1.442;2023-04-15T08:33:32;2.00;2.00;0.00
44933;PMS3003;30667;43.614;1.442;2023-04-15T08:35:57;2.25;2.00;0.00
44933;PMS3003;30667;43.614;1.442;2023-04-15T08:38:23;1.75;1.50;0.00
44933;PMS3003;30667;43.614;1.442;2023-04-15T08:40:48;5.25;2.00;0.00
44933;PMS3003;30667;43.614;1.442;2023-04-15T08:43:16;3.50;2.75;0.00
44933;PMS3003;30667;43.614;1.442;2023-04-15T08:45:46;3.00;2.00;0.00
44933;PMS3003;30667;43.614;1.442;2023-04-15T08:48:14;1.40;0.60;0.00
44933;PMS3003;30667;43.614;1.442;2023-04-15T08:50:43;2.00;2.00;0.00
44933;PMS3003;30667;43.614;1.442;2023-04-15T08:53:10;5.60;1.60;0.00
44933;PMS3003;30667;43.614;1.442;2023-04-15T08:55:36;2.40;1.40;0.00
44933;PMS3003;30667;43.614;1.442;2023-04-15T08:58:11;2.00;0.00;0.00
44933;PMS3003;30667;43.614;1.442;2023-04-15T09:00:38;4.80;2.00;0.00
44933;PMS3003;30667;43.614;1.442;2023-04-15T09:03:04;2.20;2.00;0.00
44933;PMS3003;30667;43.614;1.442;2023-04-15T09:05:36;1.00;1.00;0.00
44933;PMS3003;30667;43.614;1.442;2023-04-15T09:08:03;1.00;1.00;0.00
44933;PMS3003;30667;43.614;1.442;2023-04-15T09:10:29;2.00;2.00;0.00
44933;PMS3003;30667;43.614;1.442;2023-04-15T09:12:56;5.00;2.00;0.00
44933;PMS3003;30667;43.614;1.442;2023-04-15T09:15:25;3.50;2.00;0.00
44933;PMS3003;30667;43.614;1.442;2023-04-15T09:17:54;4.80;2.80;0.00
44933;PMS3003;30667;43.614;1.442;2023-04-15T09:20:20;2.60;2.60;0.60
44933;PMS3003;30667;43.614;1.442;2023-04-15T09:22:47;2.00;2.00;0.00
44933;PMS3003;30667;43.614;1.442;2023-04-15T09:27:46;3.75;3.00;0.00
44933;PMS3003;30667;43.614;1.442;2023-04-15T09:30:15;4.00;2.80;0.00
44933;PMS3003;30667;43.614;1.442;2023-04-15T09:32:50;4.25;2.00;0.00
44933;PMS3003;30667;43.614;1.442;2023-04-15T09:35:16;1.80;1.80;0.00
44933;PMS3003;30667;43.614;1.442;2023-04-15T09:37:41;3.00;2.40;0.00
44933;PMS3003;30667;43.614;1.442;2023-04-15T09:40:07;4.75;3.00;0.00
44933;PMS3003;30667;43.614;1.442;2023-04-15T09:42:34;5.20;4.20;1.00
44933;PMS3003;30667;43.614;1.442;2023-04-15T09:45:07;19.20;18.00;12.80
44933;PMS3003;30667;43.614;1.442;2023-04-15T09:47:33;6.20;5.00;1.80
44933;PMS3003;30667;43.614;1.442;2023-04-15T09:49:59;3.50;3.25;1.00
44933;PMS3003;30667;43.614;1.442;2023-04-15T09:52:25;5.60;5.00;1.80
44933;PMS3003;30667;43.614;1.442;2023-04-15T09:54:55;3.40;2.40;0.40
44933;PMS3003;30667;43.614;1.442;2023-04-15T09:57:22;3.60;2.00;0.00
44933;PMS3003;30667;43.614;1.442;2023-04-15T09:59:48;3.00;2.00;0.00
44933;PMS3003;30667;43.614;1.442;2023-04-15T10:02:14;4.00;4.00;2.00
44933;PMS3003;30667;43.614;1.442;2023-04-15T10:04:40;3.50;3.00;1.00
44933;PMS3003;30667;43.614;1.442;2023-04-15T10:07:09;3.25;3.00;0.75
44933;PMS3003;30667;43.614;1.442;2023-04-15T10:09:37;2.00;2.00;0.00
44933;PMS3003;30667;43.614;1.442;2023-04-15T10:12:03;5.00;3.00;0.00
44933;PMS3003;30667;43.614;1.442;2023-04-15T10:14:33;2.00;2.00;0.00
44933;PMS3003;30667;43.614;1.442;2023-04-15T10:17:02;3.00;2.80;1.00
44933;PMS3003;30667;43.614;1.442;2023-04-15T10:19:32;4.00;2.80;1.00
44933;PMS3003;30667;43.614;1.442;2023-04-15T10:22:00;3.40;2.60;0.00
44933;PMS3003;30667;43.614;1.442;2023-04-15T10:24:26;2.80;2.80;1.00
44933;PMS3003;30667;43.614;1.442;2023-04-15T10:26:52;3.20;2.80;0.40
44933;PMS3003;30667;43.614;1.442;2023-04-15T10:29:19;3.40;2.20;1.00
44933;PMS3003;30667;43.614;1.442;2023-04-15T10:31:44;2.50;2.50;0.00
44933;PMS3003;30667;43.614;1.442;2023-04-15T10:34:11;3.00;2.00;0.00
44933;PMS3003;30667;43.614;1.442;2023-04-15T10:36:37;1.00;1.00;0.00
44933;PMS3003;30667;43.614;1.442;2023-04-15T10:39:37;3.00;3.00;1.00
44933;PMS3003;30667;43.614;1.442;2023-04-15T10:42:05;1.20;1.20;0.00
44933;PMS3003;30667;43.614;1.442;2023-04-15T10:44:31;5.00;5.00;1.60
44933;PMS3003;30667;43.614;1.442;2023-04-15T10:46:56;5.00;5.00;2.00
44933;PMS3003;30667;43.614;1.442;2023-04-15T10:49:25;3.00;2.75;0.75
44933;PMS3003;30667;43.614;1.442;2023-04-15T10:51:58;4.60;2.00;0.00
44933;PMS3003;30667;43.614;1.442;2023-04-15T10:59:36;4.20;4.20;2.00
44933;PMS3003;30667;43.614;1.442;2023-04-15T11:02:06;2.00;1.40;0.00
44933;PMS3003;30667;43.614;1.442;2023-04-15T11:12:37;1.25;1.25;0.00
44933;PMS3003;30667;43.614;1.442;2023-04-15T11:18:18;1.40;1.40;0.00
44933;PMS3003;30667;43.614;1.442;2023-04-15T11:23:29;2.00;2.00;0.40
44933;PMS3003;30667;43.614;1.442;2023-04-15T11:26:00;2.00;2.00;0.00
44933;PMS3003;30667;43.614;1.442;2023-04-15T11:28:30;1.40;1.40;0.00
44933;PMS3003;30667;43.614;1.442;2023-04-15T11:30:56;4.60;3.00;1.00
44933;PMS3003;30667;43.614;1.442;2023-04-15T11:33:22;3.80;3.00;0.80
44933;PMS3003;30667;43.614;1.442;2023-04-15T11:35:49;2.00;2.00;0.00
44933;PMS3003;30667;43.614;1.442;2023-04-15T11:38:15;1.00;1.00;0.00
44933;PMS3003;30667;43.614;1.442;2023-04-15T11:40:41;2.00;1.00;0.00
44933;PMS3003;30667;43.614;1.442;2023-04-15T11:43:11;4.80;3.00;1.00
44933;PMS3003;30667;43.614;1.442;2023-04-15T11:45:47;2.20;2.00;0.00
44933;PMS3003;30667;43.614;1.442;2023-04-15T11:48:13;1.80;1.00;0.00
44933;PMS3003;30667;43.614;1.442;2023-04-15T11:50:39;2.50;2.50;0.00
44933;PMS3003;30667;43.614;1.442;2023-04-15T11:53:10;3.00;1.80;0.00
44933;PMS3003;30667;43.614;1.442;2023-04-15T11:55:46;1.40;1.40;0.00
44933;PMS3003;30667;43.614;1.442;2023-04-15T12:03:25;2.00;2.00;0.00
44933;PMS3003;30667;43.614;1.442;2023-04-15T12:11:29;2.40;2.00;0.00
44933;PMS3003;30667;43.614;1.442;2023-04-15T12:14:44;1.00;1.00;0.00
44933;PMS3003;30667;43.614;1.442;2023-04-15T12:16:59;2.00;2.00;0.00
44933;PMS3003;30667;43.614;1.442;2023-04-15T12:19:41;2.00;1.00;0.00
44933;PMS3003;30667;43.614;1.442;2023-04-15T12:22:10;2.20;1.80;0.20
44933;PMS3003;30667;43.614;1.442;2023-04-15T12:24:37;0.20;0.20;0.00
44933;PMS3003;30667;43.614;1.442;2023-04-15T12:27:05;1.20;1.20;0.00
44933;PMS3003;30667;43.614;1.442;2023-04-15T12:29:31;1.40;1.00;0.00
44933;PMS3003;30667;43.614;1.442;2023-04-15T12:32:04;1.40;1.00;0.00
44933;PMS3003;30667;43.614;1.442;2023-04-15T12:34:32;1.40;1.40;0.00
44933;PMS3003;30667;43.614;1.442;2023-04-15T12:37:00;1.60;1.20;0.00
44933;PMS3003;30667;43.614;1.442;2023-04-15T12:39:28;3.00;1.00;0.00
44933;PMS3003;30667;43.614;1.442;2023-04-15T12:41:55;1.80;1.60;0.00
44933;PMS3003;30667;43.614;1.442;2023-04-15T12:44:21;3.00;2.25;0.00
44933;PMS3003;30667;43.614;1.442;2023-04-15T12:46:48;2.20;1.00;0.00
44933;PMS3003;30667;43.614;1.442;2023-04-15T12:49:14;2.20;2.00;0.00
44933;PMS3003;30667;43.614;1.442;2023-04-15T12:51:40;1.75;1.00;0.00
44933;PMS3003;30667;43.614;1.442;2023-04-15T12:54:06;2.80;2.00;0.00
44933;PMS3003;30667;43.614;1.442;2023-04-15T12:56:31;1.25;1.25;0.00
44933;PMS3003;30667;43.614;1.442;2023-04-15T12:58:57;3.25;2.25;0.00
44933;PMS3003;30667;43.614;1.442;2023-04-15T13:01:22;1.50;1.00;0.00
44933;PMS3003;30667;43.614;1.442;2023-04-15T13:03:48;1.00;1.00;0.00
44933;PMS3003;30667;43.614;1.442;2023-04-15T13:06:15;1.00;1.00;0.00
44933;PMS3003;30667;43.614;1.442;2023-04-15T13:08:40;2.00;1.00;0.00
44933;PMS3003;30667;43.614;1.442;2023-04-15T13:11:06;2.00;2.00;0.00
44933;PMS3003;30667;43.614;1.442;2023-04-15T13:13:31;2.00;1.25;0.00
44933;PMS3003;30667;43.614;1.442;2023-04-15T13:15:57;1.50;1.50;0.00
44933;PMS3003;30667;43.614;1.442;2023-04-15T13:18:23;1.40;1.40;0.00
44933;PMS3003;30667;43.614;1.442;2023-04-15T13:20:49;2.00;1.75;0.00
44933;PMS3003;30667;43.614;1.442;2023-04-15T13:23:15;2.00;2.00;0.00
44933;PMS3003;30667;43.614;1.442;2023-04-15T13:25:41;3.00;2.00;0.00
44933;PMS3003;30667;43.614;1.442;2023-04-15T13:28:06;6.00;3.00;0.00
44933;PMS3003;30667;43.614;1.442;2023-04-15T13:30:31;2.50;2.25;0.75
44933;PMS3003;30667;43.614;1.442;2023-04-15T13:32:57;1.75;1.75;0.00
44933;PMS3003;30667;43.614;1.442;2023-04-15T13:35:22;2.00;2.00;0.00
44933;PMS3003;30667;43.614;1.442;2023-04-15T13:37:48;1.00;1.00;0.00
44933;PMS3003;30667;43.614;1.442;2023-04-15T13:40:13;2.00;2.00;0.00
44933;PMS3003;30667;43.614;1.442;2023-04-15T13:42:39;2.00;1.75;0.00
44933;PMS3003;30667;43.614;1.442;2023-04-15T13:45:05;1.00;1.00;0.00
44933;PMS3003;30667;43.614;1.442;2023-04-15T13:47:31;2.00;1.60;0.00
44933;PMS3003;30667;43.614;1.442;2023-04-15T13:49:56;2.00;2.00;0.00
44933;PMS3003;30667;43.614;1.442;2023-04-15T13:52:22;1.50;1.50;0.00
44933;PMS3003;30667;43.614;1.442;2023-04-15T13:54:47;2.75;2.00;0.00
44933;PMS3003;30667;43.614;1.442;2023-04-15T13:57:13;1.00;1.00;0.00
44933;PMS3003;30667;43.614;1.442;2023-04-15T13:59:38;1.00;1.00;0.00
44933;PMS3003;30667;43.614;1.442;2023-04-15T14:02:04;1.00;1.00;0.00
44933;PMS3003;30667;43.614;1.442;2023-04-15T14:04:30;1.50;1.50;0.00
44933;PMS3003;30667;43.614;1.442;2023-04-15T14:06:56;2.40;2.00;0.00
44933;PMS3003;30667;43.614;1.442;2023-04-15T14:09:21;2.20;2.00;0.00
44933;PMS3003;30667;43.614;1.442;2023-04-15T14:11:48;1.60;1.40;0.00
44933;PMS3003;30667;43.614;1.442;2023-04-15T14:14:16;1.00;1.00;0.00
44933;PMS3003;30667;43.614;1.442;2023-04-15T14:16:42;2.00;2.00;0.00
44933;PMS3003;30667;43.614;1.442;2023-04-15T14:19:07;1.00;1.00;0.00
44933;PMS3003;30667;43.614;1.442;2023-04-15T14:21:33;3.00;2.00;1.00
44933;PMS3003;30667;43.614;1.442;2023-04-15T14:23:58;1.00;1.00;0.00
44933;PMS3003;30667;43.614;1.442;2023-04-15T14:26:24;2.75;2.00;0.00
44933;PMS3003;30667;43.614;1.442;2023-04-15T14:28:49;3.00;2.25;0.00
44933;PMS3003;30667;43.614;1.442;2023-04-15T14:31:15;2.00;2.00;0.00
44933;PMS3003;30667;43.614;1.442;2023-04-15T14:33:40;1.25;1.25;0.00
44933;PMS3003;30667;43.614;1.442;2023-04-15T14:36:06;3.00;2.00;0.00
44933;PMS3003;30667;43.614;1.442;2023-04-15T14:38:33;2.80;2.00;0.00
44933;PMS3003;30667;43.614;1.442;2023-04-15T14:41:02;3.00;2.00;0.00
44933;PMS3003;30667;43.614;1.442;2023-04-15T14:43:28;1.80;1.80;0.00
44933;PMS3003;30667;43.614;1.442;2023-04-15T14:45:54;2.00;1.00;0.00
44933;PMS3003;30667;43.614;1.442;2023-04-15T14:48:19;2.00;1.00;0.00